createdAt,value
2018-04-08T00:01:33.964Z,41.13
2018-04-08T00:03:59.981Z,41.17
2018-04-08T00:06:25.962Z,41.14
2018-04-08T00:08:51.979Z,41.16
2018-04-08T00:11:17.982Z,41.14
2018-04-08T00:13:43.994Z,41.09
2018-04-08T00:16:09.937Z,41.00
2018-04-08T00:18:35.930Z,41.09
2018-04-08T00:21:01.950Z,41.05
2018-04-08T00:23:27.925Z,41.05
2018-04-08T00:25:53.906Z,41.03
2018-04-08T00:28:19.881Z,41.07
2018-04-08T00:30:45.885Z,40.98
2018-04-08T00:33:11.831Z,41.01
2018-04-08T00:35:37.805Z,40.98
2018-04-08T00:38:03.821Z,40.97
2018-04-08T00:40:29.801Z,41.08
2018-04-08T00:42:55.752Z,40.98
2018-04-08T00:45:21.724Z,40.97
2018-04-08T00:47:47.739Z,41.02
2018-04-08T00:50:13.726Z,40.92
2018-04-08T00:52:39.689Z,40.94
2018-04-08T00:55:05.678Z,40.85
2018-04-08T00:57:31.692Z,40.87
2018-04-08T00:59:57.644Z,40.91
2018-04-08T01:02:23.632Z,40.89
2018-04-08T01:04:49.645Z,40.92
2018-04-08T01:07:15.608Z,40.81
2018-04-08T01:09:41.649Z,40.74
2018-04-08T01:12:07.621Z,40.75
2018-04-08T01:14:33.595Z,40.86
2018-04-08T01:16:59.605Z,40.67
2018-04-08T01:19:25.564Z,40.63
2018-04-08T01:21:51.576Z,40.67
2018-04-08T01:24:17.554Z,40.73
2018-04-08T01:26:43.565Z,40.69
2018-04-08T01:29:09.516Z,40.69
2018-04-08T01:31:35.525Z,40.68
2018-04-08T01:34:01.475Z,40.65
2018-04-08T01:36:27.457Z,40.72
2018-04-08T01:38:53.437Z,40.56
2018-04-08T01:41:19.458Z,40.61
2018-04-08T01:43:45.440Z,40.61
2018-04-08T01:46:11.502Z,40.66
2018-04-08T01:48:37.518Z,40.60
2018-04-08T01:51:03.489Z,40.50
2018-04-08T01:53:29.502Z,40.66
2018-04-08T01:55:55.454Z,40.63
2018-04-08T01:58:21.433Z,40.58
2018-04-08T02:00:47.441Z,40.24
2018-04-08T02:03:13.435Z,40.43
2018-04-08T02:05:39.414Z,40.49
2018-04-08T02:08:05.428Z,40.36
2018-04-08T02:10:31.373Z,40.50
2018-04-08T02:12:57.380Z,40.52
2018-04-08T02:15:23.375Z,40.53
2018-04-08T02:17:49.326Z,40.48
2018-04-08T02:20:15.310Z,40.42
2018-04-08T02:22:41.285Z,40.29
2018-04-08T02:25:07.268Z,40.47
2018-04-08T02:27:33.244Z,40.43
2018-04-08T02:29:59.259Z,40.40
2018-04-08T02:32:25.239Z,40.31
2018-04-08T02:34:51.218Z,40.40
2018-04-08T02:37:17.161Z,40.27
2018-04-08T02:39:43.148Z,40.26
2018-04-08T02:42:09.158Z,40.42
2018-04-08T02:44:35.150Z,40.41
2018-04-08T02:47:01.164Z,40.34
2018-04-08T02:49:27.106Z,40.37
2018-04-08T02:51:53.088Z,40.26
2018-04-08T02:54:19.070Z,40.26
2018-04-08T02:56:45.053Z,40.25
2018-04-08T02:59:11.072Z,40.36
2018-04-08T03:01:37.080Z,40.28
2018-04-08T03:04:03.025Z,40.28
2018-04-08T03:06:29.008Z,40.34
2018-04-08T03:08:55.006Z,40.24
2018-04-08T03:11:20.988Z,40.30
2018-04-08T03:13:46.972Z,40.19
2018-04-08T03:16:12.997Z,40.30
2018-04-08T03:18:38.977Z,40.27
2018-04-08T03:21:04.937Z,40.16
2018-04-08T03:23:30.952Z,40.30
2018-04-08T03:25:56.933Z,40.13
2018-04-08T03:28:22.909Z,40.28
2018-04-08T03:30:48.921Z,40.24
2018-04-08T03:33:14.903Z,40.19
2018-04-08T03:35:40.860Z,40.21
2018-04-08T03:38:06.883Z,40.27
2018-04-08T03:40:32.932Z,40.12
2018-04-08T03:42:58.877Z,40.27
2018-04-08T03:45:24.860Z,40.12
2018-04-08T03:47:50.904Z,40.15
2018-04-08T03:50:16.876Z,40.17
2018-04-08T03:52:42.822Z,40.09
2018-04-08T03:55:08.828Z,40.07
2018-04-08T03:57:34.804Z,40.17
2018-04-08T04:00:00.815Z,40.24
2018-04-08T04:02:26.824Z,40.21
2018-04-08T04:04:52.764Z,40.14
2018-04-08T04:07:18.778Z,40.21
2018-04-08T04:09:44.735Z,40.12
2018-04-08T04:12:10.718Z,40.23
2018-04-08T04:14:36.702Z,40.19
2018-04-08T04:17:02.715Z,40.11
2018-04-08T04:19:28.716Z,40.04
2018-04-08T04:21:54.663Z,40.08
2018-04-08T04:24:20.649Z,40.14
2018-04-08T04:26:46.624Z,40.21
2018-04-08T04:29:12.702Z,40.08
2018-04-08T04:31:38.714Z,40.07
2018-04-08T04:34:04.672Z,40.13
2018-04-08T04:36:30.682Z,40.15
2018-04-08T04:38:56.624Z,40.06
2018-04-08T04:41:22.610Z,40.03
2018-04-08T04:43:48.596Z,39.94
2018-04-08T04:46:14.613Z,40.05
2018-04-08T04:48:40.575Z,39.94
2018-04-08T04:51:06.547Z,39.92
2018-04-08T04:53:32.560Z,40.03
2018-04-08T04:55:58.537Z,39.96
2018-04-08T04:58:24.547Z,39.94
2018-04-08T05:00:50.526Z,39.90
2018-04-08T05:03:16.483Z,40.00
2018-04-08T05:05:42.497Z,39.93
2018-04-08T05:08:08.444Z,39.83
2018-04-08T05:10:34.425Z,39.96
2018-04-08T05:13:00.407Z,39.82
2018-04-08T05:15:26.421Z,39.75
2018-04-08T05:17:52.368Z,39.80
2018-04-08T05:20:18.382Z,39.90
2018-04-08T05:22:44.356Z,40.04
2018-04-08T05:25:10.361Z,39.93
2018-04-08T05:27:36.345Z,40.03
2018-04-08T05:30:02.345Z,39.91
2018-04-08T05:32:28.328Z,39.91
2018-04-08T05:34:54.373Z,39.69
2018-04-08T05:37:20.370Z,39.78
2018-04-08T05:39:46.357Z,39.89
2018-04-08T05:42:12.372Z,39.95
2018-04-08T05:44:38.589Z,40.21
2018-04-08T05:47:04.573Z,40.16
2018-04-08T05:49:30.564Z,40.19
2018-04-08T05:51:56.569Z,40.51
2018-04-08T05:54:22.557Z,40.52
2018-04-08T05:56:48.574Z,41.01
2018-04-08T05:59:14.548Z,41.36
2018-04-08T06:01:40.524Z,41.65
2018-04-08T06:04:06.590Z,41.61
2018-04-08T06:06:32.607Z,41.94
2018-04-08T06:08:58.590Z,41.68
2018-04-08T06:11:24.573Z,41.82
2018-04-08T06:13:50.664Z,41.95
2018-04-08T06:16:16.681Z,42.14
2018-04-08T06:18:42.690Z,42.02
2018-04-08T06:21:08.671Z,41.76
2018-04-08T06:23:34.646Z,41.73
2018-04-08T06:26:00.666Z,41.70
2018-04-08T06:28:26.649Z,41.59
2018-04-08T06:30:52.645Z,41.83
2018-04-08T06:33:18.672Z,41.85
2018-04-08T06:35:44.660Z,42.42
2018-04-08T06:38:10.698Z,42.58
2018-04-08T06:40:36.650Z,42.30
2018-04-08T06:43:02.641Z,42.60
2018-04-08T06:45:28.696Z,42.55
2018-04-08T06:47:54.788Z,42.48
2018-04-08T06:50:20.792Z,42.38
2018-04-08T06:52:46.751Z,42.14
2018-04-08T06:55:12.855Z,42.19
2018-04-08T06:57:38.836Z,42.33
2018-04-08T07:00:04.852Z,42.90
2018-04-08T07:02:30.807Z,42.92
2018-04-08T07:04:56.793Z,43.22
2018-04-08T07:07:24.167Z,42.86
2018-04-08T07:09:52.128Z,42.32
2018-04-08T07:12:18.158Z,42.19
2018-04-08T07:14:44.331Z,42.05
2018-04-08T07:17:12.200Z,42.24
2018-04-08T07:19:38.177Z,42.47
2018-04-08T07:22:04.137Z,42.52
2018-04-08T07:24:30.122Z,42.67
2018-04-08T07:26:56.124Z,42.23
2018-04-08T07:29:22.103Z,42.83
2018-04-08T07:31:48.126Z,42.75
2018-04-08T07:34:14.362Z,43.02
2018-04-08T07:36:40.334Z,43.10
2018-04-08T07:39:06.354Z,43.24
2018-04-08T07:41:32.303Z,42.98
2018-04-08T07:43:58.326Z,43.24
2018-04-08T07:46:32.941Z,43.17
2018-04-08T07:48:59.003Z,42.67
2018-04-08T07:51:25.018Z,42.89
2018-04-08T07:53:51.023Z,42.58
2018-04-08T07:56:17.160Z,42.48
2018-04-08T07:58:43.243Z,42.40
2018-04-08T08:01:09.232Z,42.39
2018-04-08T08:03:35.233Z,42.32
2018-04-08T08:06:01.251Z,42.28
2018-04-08T08:08:28.291Z,42.28
2018-04-08T08:10:54.278Z,42.31
2018-04-08T08:13:20.259Z,42.06
2018-04-08T08:15:46.268Z,42.00
2018-04-08T08:18:12.257Z,41.93
2018-04-08T08:20:38.235Z,41.95
2018-04-08T08:23:04.256Z,41.88
2018-04-08T08:25:30.195Z,41.83
2018-04-08T08:27:56.180Z,41.79
2018-04-08T08:30:22.199Z,41.71
2018-04-08T08:32:48.178Z,41.64
2018-04-08T08:35:14.213Z,41.76
2018-04-08T08:37:40.225Z,41.95
2018-04-08T08:40:06.243Z,41.83
2018-04-08T08:42:32.221Z,42.05
2018-04-08T08:44:58.197Z,41.81
2018-04-08T08:47:24.212Z,42.20
2018-04-08T08:49:50.235Z,42.14
2018-04-08T08:52:16.244Z,42.12
2018-04-08T08:54:42.192Z,42.19
2018-04-08T08:57:08.172Z,42.24
2018-04-08T08:59:34.154Z,42.18
2018-04-08T09:02:00.136Z,42.15
2018-04-08T09:04:26.181Z,42.13
2018-04-08T09:06:52.144Z,42.46
2018-04-08T09:09:18.110Z,42.42
2018-04-08T09:14:10.115Z,42.38
2018-04-08T09:16:36.164Z,42.43
2018-04-08T09:19:02.116Z,42.45
2018-04-08T09:21:28.129Z,42.40
2018-04-08T09:23:54.112Z,42.44
2018-04-08T09:26:20.092Z,42.48
2018-04-08T09:28:46.078Z,42.79
2018-04-08T09:31:12.100Z,42.72
2018-04-08T09:33:38.108Z,42.94
2018-04-08T09:36:04.143Z,42.99
2018-04-08T09:38:30.133Z,43.07
2018-04-08T09:40:56.087Z,42.93
2018-04-08T09:43:22.121Z,42.53
2018-04-08T09:45:48.111Z,42.58
2018-04-08T09:48:14.095Z,42.49
2018-04-08T09:50:40.114Z,42.70
2018-04-08T09:53:06.094Z,42.90
2018-04-08T09:55:32.069Z,43.01
2018-04-08T09:57:58.049Z,42.93
2018-04-08T10:00:24.030Z,42.78
2018-04-08T10:02:50.137Z,43.13
2018-04-08T10:05:16.199Z,42.90
2018-04-08T10:07:42.181Z,43.13
2018-04-08T10:10:08.126Z,43.00
2018-04-08T10:12:34.147Z,42.70
2018-04-08T10:15:00.130Z,42.49
2018-04-08T10:17:26.084Z,42.59
2018-04-08T10:19:52.069Z,42.51
2018-04-08T10:22:18.094Z,42.49
2018-04-08T10:24:44.082Z,42.49
2018-04-08T10:27:10.069Z,42.54
2018-04-08T10:29:36.100Z,42.77
2018-04-08T10:32:02.085Z,43.10
2018-04-08T10:34:28.074Z,43.08
2018-04-08T10:36:54.061Z,43.02
2018-04-08T10:39:20.040Z,43.02
2018-04-08T10:41:46.022Z,43.00
2018-04-08T10:44:12.010Z,43.00
2018-04-08T10:46:37.984Z,42.85
2018-04-08T10:49:03.969Z,43.19
2018-04-08T10:51:29.946Z,43.09
2018-04-08T10:53:55.932Z,43.28
2018-04-08T10:56:21.948Z,43.04
2018-04-08T10:58:47.958Z,43.08
2018-04-08T11:01:13.941Z,43.24
2018-04-08T11:03:39.935Z,43.30
2018-04-08T11:06:05.947Z,43.27
2018-04-08T11:08:31.923Z,43.26
2018-04-08T11:10:57.909Z,43.44
2018-04-08T11:13:23.937Z,43.39
2018-04-08T11:15:49.948Z,43.41
2018-04-08T11:18:15.932Z,43.46
2018-04-08T11:20:41.924Z,43.44
2018-04-08T11:23:07.905Z,43.31
2018-04-08T11:25:35.559Z,42.80
2018-04-08T11:28:01.542Z,43.08
2018-04-08T11:30:27.529Z,43.03
2018-04-08T11:32:53.517Z,43.84
2018-04-08T11:35:19.505Z,43.46
2018-04-08T11:37:45.487Z,43.66
2018-04-08T11:40:11.472Z,43.69
2018-04-08T11:42:37.472Z,43.44
2018-04-08T11:45:03.510Z,43.41
2018-04-08T11:47:29.553Z,43.92
2018-04-08T11:49:55.577Z,43.80
2018-04-08T11:52:21.528Z,43.89
2018-04-08T11:54:47.541Z,44.22
2018-04-08T11:57:13.534Z,44.02
2018-04-08T11:59:39.552Z,43.99
2018-04-08T12:02:05.540Z,44.21
2018-04-08T12:04:31.474Z,43.75
2018-04-08T12:06:57.464Z,44.33
2018-04-08T12:09:23.455Z,44.14
2018-04-08T12:11:49.491Z,43.71
2018-04-08T12:14:15.534Z,44.00
2018-04-08T12:16:41.491Z,44.18
2018-04-08T12:19:07.812Z,43.94
2018-04-08T12:21:33.790Z,43.93
2018-04-08T12:23:59.796Z,43.97
2018-04-08T12:26:25.778Z,43.91
2018-04-08T12:28:51.757Z,44.12
2018-04-08T12:31:17.824Z,43.95
2018-04-08T12:33:43.806Z,43.83
2018-04-08T12:36:09.754Z,43.92
2018-04-08T12:38:35.744Z,43.64
2018-04-08T12:41:01.724Z,43.36
2018-04-08T12:43:27.808Z,43.13
2018-04-08T12:45:53.885Z,43.49
2018-04-08T12:48:19.898Z,43.41
2018-04-08T12:50:45.951Z,43.51
2018-04-08T12:53:11.939Z,43.27
2018-04-08T12:55:37.954Z,43.54
2018-04-08T12:58:03.935Z,43.68
2018-04-08T13:00:29.929Z,43.34
2018-04-08T13:02:55.892Z,43.32
2018-04-08T13:05:21.891Z,43.64
2018-04-08T13:07:47.943Z,43.57
2018-04-08T13:10:13.844Z,43.16
2018-04-08T13:12:39.852Z,43.52
2018-04-08T13:15:05.843Z,43.32
2018-04-08T13:17:31.825Z,43.13
2018-04-08T13:19:57.806Z,43.62
2018-04-08T13:22:23.793Z,43.53
2018-04-08T13:24:49.806Z,43.41
2018-04-08T13:27:15.812Z,42.92
2018-04-08T13:29:41.790Z,42.83
2018-04-08T13:32:07.782Z,42.92
2018-04-08T13:34:33.756Z,42.77
2018-04-08T13:36:59.728Z,43.14
2018-04-08T13:39:25.749Z,43.10
2018-04-08T13:41:51.763Z,43.00
2018-04-08T13:44:17.709Z,42.96
2018-04-08T13:46:43.704Z,42.97
2018-04-08T13:49:09.722Z,42.93
2018-04-08T13:51:35.670Z,42.89
2018-04-08T13:54:01.686Z,42.62
2018-04-08T13:56:27.634Z,42.74
2018-04-08T13:58:53.647Z,42.69
2018-04-08T14:01:19.609Z,42.52
2018-04-08T14:03:45.595Z,42.26
2018-04-08T14:06:11.615Z,42.49
2018-04-08T14:08:37.595Z,42.58
2018-04-08T14:11:03.581Z,42.41
2018-04-08T14:13:29.604Z,42.56
2018-04-08T14:15:55.610Z,42.55
2018-04-08T14:18:21.598Z,42.18
2018-04-08T14:20:47.615Z,42.30
2018-04-08T14:23:13.614Z,42.55
2018-04-08T14:25:39.754Z,42.41
2018-04-08T14:28:05.767Z,42.17
2018-04-08T14:30:31.933Z,42.18
2018-04-08T14:32:57.930Z,42.50
2018-04-08T14:35:23.878Z,42.49
2018-04-08T14:37:49.906Z,42.56
2018-04-08T14:40:15.912Z,42.61
2018-04-08T14:42:41.889Z,42.63
2018-04-08T14:45:07.864Z,42.63
2018-04-08T14:47:33.909Z,42.96
2018-04-08T14:49:59.900Z,43.00
2018-04-08T14:52:25.918Z,43.45
2018-04-08T14:54:51.930Z,44.31
2018-04-08T14:57:17.956Z,44.81
2018-04-08T14:59:44.035Z,44.89
2018-04-08T15:02:10.001Z,44.68
2018-04-08T15:04:36.062Z,45.69
2018-04-08T15:07:01.997Z,46.11
2018-04-08T15:09:27.993Z,45.39
2018-04-08T15:11:53.976Z,46.21
2018-04-08T15:14:19.953Z,45.87
2018-04-08T15:16:45.936Z,47.57
2018-04-08T15:19:11.910Z,47.69
2018-04-08T15:21:37.929Z,48.23
2018-04-08T15:24:03.908Z,48.37
2018-04-08T15:26:29.920Z,48.24
2018-04-08T15:28:55.918Z,47.88
2018-04-08T15:31:21.934Z,46.32
2018-04-08T15:33:47.980Z,46.37
2018-04-08T15:36:14.004Z,45.84
2018-04-08T15:38:40.008Z,45.51
2018-04-08T15:41:05.959Z,45.33
2018-04-08T15:43:31.968Z,44.91
2018-04-08T15:45:58.122Z,44.23
2018-04-08T15:48:24.089Z,43.36
2018-04-08T15:50:50.114Z,43.40
2018-04-08T15:53:16.082Z,43.24
2018-04-08T15:55:42.076Z,43.44
2018-04-08T15:58:08.121Z,43.22
2018-04-08T16:00:34.114Z,43.34
2018-04-08T16:03:02.657Z,43.97
2018-04-08T16:05:28.559Z,43.88
2018-04-08T16:07:54.564Z,44.04
2018-04-08T16:10:20.684Z,43.95
2018-04-08T16:12:46.989Z,44.23
2018-04-08T16:15:12.978Z,43.88
2018-04-08T16:17:38.964Z,43.92
2018-04-08T16:20:04.944Z,43.83
2018-04-08T16:22:30.954Z,43.94
2018-04-08T16:24:56.935Z,43.74
2018-04-08T16:27:22.942Z,43.63
2018-04-08T16:29:48.928Z,43.47
2018-04-08T16:32:14.918Z,43.07
2018-04-08T16:34:40.930Z,42.95
2018-04-08T16:37:06.919Z,42.85
2018-04-08T16:39:32.941Z,42.73
2018-04-08T16:41:58.949Z,42.72
2018-04-08T16:44:24.896Z,42.57
2018-04-08T16:46:50.882Z,42.37
2018-04-08T16:49:16.877Z,42.28
2018-04-08T16:51:42.859Z,42.30
2018-04-08T16:54:09.143Z,42.33
2018-04-08T16:56:35.324Z,42.41
2018-04-08T16:59:01.344Z,42.35
2018-04-08T17:01:27.366Z,42.33
2018-04-08T17:03:53.379Z,42.69
2018-04-08T17:06:19.444Z,42.73
2018-04-08T17:08:46.114Z,42.83
2018-04-08T17:11:12.125Z,42.85
2018-04-08T17:13:39.438Z,42.88
2018-04-08T17:16:07.440Z,42.95
2018-04-08T17:18:34.225Z,42.69
2018-04-08T17:21:01.200Z,42.64
2018-04-08T17:23:27.934Z,42.62
2018-04-08T17:25:58.977Z,42.57
2018-04-08T17:28:38.846Z,42.49
2018-04-08T17:31:09.696Z,42.55
2018-04-08T17:33:36.727Z,42.58
2018-04-08T17:36:03.353Z,42.35
2018-04-08T17:38:30.754Z,42.36
2018-04-08T17:40:59.290Z,42.26
2018-04-08T17:43:29.942Z,41.98
2018-04-08T17:48:43.684Z,41.59
2018-04-08T17:51:14.216Z,41.52
2018-04-08T17:53:41.063Z,42.29
2018-04-08T17:56:07.932Z,42.77
2018-04-08T17:58:34.983Z,42.74
2018-04-08T18:01:02.887Z,42.74
2018-04-08T18:03:29.570Z,42.77
2018-04-08T18:05:56.718Z,42.95
2018-04-08T18:08:24.012Z,43.51
2018-04-08T18:10:51.254Z,43.17
2018-04-08T18:13:23.643Z,43.56
2018-04-08T18:15:52.025Z,43.51
2018-04-08T18:18:19.223Z,43.24
2018-04-08T18:20:49.175Z,43.44
2018-04-08T18:23:28.904Z,43.59
2018-04-08T18:25:57.075Z,43.44
2018-04-08T18:28:24.336Z,43.58
2018-04-08T18:30:51.464Z,43.77
2018-04-08T18:33:19.540Z,43.86
2018-04-08T18:35:45.516Z,43.62
2018-04-08T18:38:11.559Z,43.79
2018-04-08T18:40:37.997Z,43.83
2018-04-08T18:43:04.227Z,43.79
2018-04-08T18:45:30.527Z,43.67
2018-04-08T18:47:56.513Z,43.78
2018-04-08T18:50:22.906Z,43.62
2018-04-08T18:52:49.048Z,43.59
2018-04-08T18:55:15.036Z,43.62
2018-04-08T18:57:41.030Z,43.27
2018-04-08T19:00:07.964Z,43.63
2018-04-08T19:02:34.126Z,43.29
2018-04-08T19:05:00.112Z,43.39
2018-04-08T19:07:26.093Z,43.39
2018-04-08T19:09:52.230Z,43.39
2018-04-08T19:12:18.244Z,43.34
2018-04-08T19:14:51.835Z,43.44
2018-04-08T19:17:24.348Z,43.55
2018-04-08T19:19:50.377Z,43.52
2018-04-08T19:22:16.354Z,43.40
2018-04-08T19:24:42.377Z,43.45
2018-04-08T19:27:08.407Z,43.40
2018-04-08T19:29:34.428Z,43.26
2018-04-08T19:32:00.423Z,43.42
2018-04-08T19:34:26.404Z,43.38
2018-04-08T19:36:52.369Z,43.42
2018-04-08T19:39:18.389Z,43.44
2018-04-08T19:41:44.366Z,43.53
2018-04-08T19:44:10.585Z,43.41
2018-04-08T19:46:36.595Z,43.34
2018-04-08T19:49:02.583Z,43.24
2018-04-08T19:51:28.652Z,43.24
2018-04-08T19:53:57.333Z,43.34
2018-04-08T19:56:23.292Z,43.02
2018-04-08T19:58:49.269Z,43.26
2018-04-08T20:01:15.252Z,43.19
2018-04-08T20:03:42.014Z,43.20
2018-04-08T20:06:07.998Z,43.04
2018-04-08T20:08:34.093Z,43.20
2018-04-08T20:11:00.124Z,43.14
2018-04-08T20:13:26.108Z,43.10
2018-04-08T20:15:52.315Z,43.12
2018-04-08T20:18:18.304Z,43.05
2018-04-08T20:20:44.415Z,43.01
2018-04-08T20:23:10.395Z,43.03
2018-04-08T20:25:36.383Z,42.86
2018-04-08T20:28:02.368Z,42.90
2018-04-08T20:30:28.351Z,42.97
2018-04-08T20:32:54.959Z,42.90
2018-04-08T20:35:20.950Z,42.87
2018-04-08T20:37:46.920Z,43.01
2018-04-08T20:40:12.906Z,43.00
2018-04-08T20:42:38.915Z,42.89
2018-04-08T20:45:04.867Z,42.83
2018-04-08T20:47:30.852Z,42.83
2018-04-08T20:49:57.138Z,42.89
2018-04-08T20:52:23.159Z,42.90
2018-04-08T20:54:49.178Z,42.79
2018-04-08T20:57:15.153Z,42.79
2018-04-08T20:59:41.136Z,42.73
2018-04-08T21:02:07.121Z,42.68
2018-04-08T21:04:33.130Z,42.60
2018-04-08T21:06:59.082Z,42.67
2018-04-08T21:09:25.123Z,42.65
2018-04-08T21:11:51.104Z,42.73
2018-04-08T21:14:17.082Z,42.48
2018-04-08T21:16:43.155Z,42.33
2018-04-08T21:19:09.131Z,42.16
2018-04-08T21:21:35.151Z,42.19
2018-04-08T21:24:01.098Z,41.94
2018-04-08T21:26:27.124Z,41.91
2018-04-08T21:28:53.134Z,41.86
2018-04-08T21:31:19.087Z,41.71
2018-04-08T21:33:45.069Z,41.69
2018-04-08T21:36:11.086Z,41.30
2018-04-08T21:38:37.028Z,41.41
2018-04-08T21:41:03.047Z,41.42
2018-04-08T21:43:29.033Z,41.46
2018-04-08T21:45:55.008Z,41.42
2018-04-08T21:48:21.026Z,41.13
2018-04-08T21:50:46.996Z,41.21
2018-04-08T21:53:12.952Z,41.28
2018-04-08T21:55:38.946Z,41.20
2018-04-08T21:58:04.917Z,41.16
2018-04-08T22:00:30.903Z,41.25
2018-04-08T22:02:56.920Z,40.93
2018-04-08T22:05:22.869Z,40.75
2018-04-08T22:07:48.848Z,40.87
2018-04-08T22:10:14.858Z,40.74
2018-04-08T22:12:41.758Z,40.82
2018-04-08T22:15:07.741Z,40.89
2018-04-08T22:17:33.787Z,40.62
2018-04-08T22:19:59.760Z,40.69
2018-04-08T22:22:25.701Z,40.65
2018-04-08T22:24:51.719Z,40.29
2018-04-08T22:27:17.714Z,40.52
2018-04-08T22:29:43.732Z,40.54
2018-04-08T22:32:09.714Z,40.61
2018-04-08T22:34:35.688Z,40.76
2018-04-08T22:37:01.744Z,40.67
2018-04-08T22:39:28.782Z,40.56
2018-04-08T22:41:54.822Z,40.47
2018-04-08T22:44:20.753Z,40.48
2018-04-08T22:46:46.734Z,40.53
2018-04-08T22:49:12.725Z,40.71
2018-04-08T22:51:38.737Z,40.38
2018-04-08T22:54:04.715Z,40.53
2018-04-08T22:56:30.680Z,40.48
2018-04-08T22:58:56.737Z,40.47
2018-04-08T23:01:22.729Z,40.46
2018-04-08T23:03:48.740Z,40.09
2018-04-08T23:06:14.752Z,40.48
2018-04-08T23:08:40.714Z,40.03
2018-04-08T23:11:06.695Z,40.24
2018-04-08T23:13:32.706Z,40.14
2018-04-08T23:15:58.689Z,40.06
2018-04-08T23:18:24.678Z,39.88
2018-04-08T23:20:50.662Z,40.05
2018-04-08T23:23:16.660Z,39.87
2018-04-08T23:25:42.637Z,39.59
2018-04-08T23:28:08.625Z,39.97
2018-04-08T23:30:34.607Z,39.77
2018-04-08T23:33:00.621Z,39.70
2018-04-08T23:35:26.602Z,39.86
2018-04-08T23:37:52.573Z,39.94
2018-04-08T23:40:18.586Z,39.77
2018-04-08T23:42:44.573Z,39.80
2018-04-08T23:45:10.563Z,39.81
2018-04-08T23:47:36.536Z,39.75
2018-04-08T23:50:03.464Z,39.64
2018-04-08T23:52:29.419Z,39.59
2018-04-08T23:54:55.404Z,39.73
2018-04-08T23:57:21.735Z,39.81
2018-04-08T23:59:47.709Z,39.65
